createdAt,value
2022-12-06T00:02:42.627Z,2.50
2022-12-06T00:05:46.530Z,2.50
2022-12-06T00:08:49.326Z,2.50
2022-12-06T00:11:51.715Z,2.50
2022-12-06T00:14:53.809Z,2.60
2022-12-06T00:17:55.942Z,2.80
2022-12-06T00:21:26.044Z,2.90
2022-12-06T00:24:28.206Z,3.00
2022-12-06T00:27:30.725Z,3.00
2022-12-06T00:30:32.907Z,3.00
2022-12-06T00:33:36.061Z,2.80
2022-12-06T00:36:39.497Z,2.90
2022-12-06T00:39:42.230Z,2.60
2022-12-06T00:42:44.701Z,2.40
2022-12-06T00:45:46.845Z,2.30
2022-12-06T00:48:49.200Z,2.30
2022-12-06T00:51:51.319Z,2.30
2022-12-06T00:54:53.469Z,2.30
2022-12-06T00:57:55.590Z,2.20
2022-12-06T01:01:17.873Z,2.30
2022-12-06T01:04:20.064Z,2.30
2022-12-06T01:07:22.185Z,2.30
2022-12-06T01:10:24.506Z,2.30
2022-12-06T01:13:26.596Z,2.30
2022-12-06T01:16:29.875Z,2.30
2022-12-06T01:19:32.033Z,2.30
2022-12-06T01:22:34.380Z,2.30
2022-12-06T01:25:36.714Z,2.40
2022-12-06T01:28:38.820Z,2.40
2022-12-06T01:31:40.877Z,2.50
2022-12-06T01:34:45.043Z,2.60
2022-12-06T01:37:47.090Z,2.60
2022-12-06T01:40:49.477Z,2.70
2022-12-06T01:43:51.739Z,2.80
2022-12-06T01:46:53.783Z,2.80
2022-12-06T01:50:00.411Z,2.80
2022-12-06T01:53:09.086Z,2.80
2022-12-06T01:56:11.139Z,2.80
2022-12-06T01:59:13.316Z,2.80
2022-12-06T02:02:15.407Z,2.80
2022-12-06T02:05:17.846Z,2.80
2022-12-06T02:08:20.408Z,2.80
2022-12-06T02:11:22.560Z,2.70
2022-12-06T02:14:29.006Z,2.60
2022-12-06T02:17:56.040Z,2.60
2022-12-06T02:21:24.537Z,2.60
2022-12-06T02:24:49.942Z,2.60
2022-12-06T02:28:18.810Z,2.60
2022-12-06T02:32:01.181Z,2.60
2022-12-06T02:35:17.188Z,2.60
2022-12-06T02:39:18.471Z,2.50
2022-12-06T02:42:28.300Z,2.50
2022-12-06T02:45:33.225Z,2.60
2022-12-06T02:48:35.283Z,2.70
2022-12-06T02:51:37.345Z,2.60
2022-12-06T02:54:39.771Z,2.70
2022-12-06T02:57:45.298Z,2.60
2022-12-06T03:00:52.030Z,2.60
2022-12-06T03:04:31.831Z,2.60
2022-12-06T03:07:46.400Z,2.60
2022-12-06T03:10:55.195Z,2.60
2022-12-06T03:14:06.458Z,2.50
2022-12-06T03:17:23.114Z,2.50
2022-12-06T03:20:43.232Z,2.50
2022-12-06T03:23:47.233Z,2.50
2022-12-06T03:26:49.890Z,2.40
2022-12-06T03:29:57.027Z,2.50
2022-12-06T03:32:59.179Z,2.40
2022-12-06T03:36:01.328Z,2.40
2022-12-06T03:39:05.707Z,2.30
2022-12-06T03:42:07.876Z,2.20
2022-12-06T03:45:11.360Z,2.20
2022-12-06T03:48:16.810Z,2.10
2022-12-06T03:51:23.246Z,2.10
2022-12-06T03:54:25.277Z,2.00
2022-12-06T03:57:27.615Z,1.90
2022-12-06T04:00:30.020Z,1.90
2022-12-06T04:03:32.149Z,2.00
2022-12-06T04:06:34.273Z,2.00
2022-12-06T04:09:55.202Z,1.90
2022-12-06T04:13:05.782Z,1.90
2022-12-06T04:16:28.434Z,1.80
2022-12-06T04:19:30.657Z,1.80
2022-12-06T04:22:51.507Z,1.80
2022-12-06T04:25:53.562Z,1.70
2022-12-06T04:29:14.111Z,1.70
2022-12-06T04:32:35.168Z,1.60
2022-12-06T04:35:55.985Z,1.60
2022-12-06T04:38:58.050Z,1.50
2022-12-06T04:42:18.714Z,1.50
2022-12-06T04:45:20.729Z,1.50
2022-12-06T04:48:22.880Z,1.50
2022-12-06T04:51:25.064Z,1.50
2022-12-06T04:54:27.147Z,1.40
2022-12-06T04:57:29.250Z,1.40
2022-12-06T05:00:31.383Z,1.40
2022-12-06T05:03:33.561Z,1.40
2022-12-06T05:06:35.750Z,1.40
2022-12-06T05:09:37.859Z,1.40
2022-12-06T05:12:39.894Z,1.40
2022-12-06T05:15:53.877Z,1.40
2022-12-06T05:18:56.009Z,1.40
2022-12-06T05:21:58.036Z,1.40
2022-12-06T05:25:00.684Z,1.40
2022-12-06T05:28:02.914Z,1.50
2022-12-06T05:31:05.288Z,1.50
2022-12-06T05:34:07.454Z,1.70
2022-12-06T05:37:09.502Z,1.70
2022-12-06T05:40:12.121Z,1.70
2022-12-06T05:43:14.547Z,1.70
2022-12-06T05:46:16.867Z,1.60
2022-12-06T05:49:19.094Z,1.60
2022-12-06T05:52:21.207Z,1.50
2022-12-06T05:55:23.393Z,1.50
2022-12-06T05:58:26.450Z,1.50
2022-12-06T06:01:28.520Z,1.50
2022-12-06T06:04:30.655Z,1.50
2022-12-06T06:07:32.843Z,1.50
2022-12-06T06:10:34.938Z,1.60
2022-12-06T06:13:36.989Z,1.50
2022-12-06T06:16:39.144Z,1.50
2022-12-06T06:19:41.312Z,1.60
2022-12-06T06:22:43.479Z,1.60
2022-12-06T06:25:45.694Z,1.60
2022-12-06T06:28:47.758Z,1.60
2022-12-06T06:31:49.835Z,1.60
2022-12-06T06:34:51.915Z,1.70
2022-12-06T06:37:53.979Z,1.70
2022-12-06T06:40:56.055Z,1.70
2022-12-06T06:43:58.161Z,1.70
2022-12-06T06:47:00.284Z,1.70
2022-12-06T06:50:02.522Z,1.70
2022-12-06T06:53:04.833Z,1.80
2022-12-06T06:56:07.371Z,1.90
2022-12-06T06:59:09.526Z,1.90
2022-12-06T07:02:15.559Z,2.00
2022-12-06T07:05:17.752Z,2.00
2022-12-06T07:08:19.993Z,2.00
2022-12-06T07:11:23.644Z,2.00
2022-12-06T07:14:25.695Z,2.00
2022-12-06T07:17:27.769Z,2.00
2022-12-06T07:20:29.900Z,2.00
2022-12-06T07:23:35.738Z,2.10
2022-12-06T07:26:37.870Z,2.40
2022-12-06T07:29:40.003Z,2.40
2022-12-06T07:32:42.139Z,2.20
2022-12-06T07:36:11.388Z,2.10
2022-12-06T07:39:11.512Z,2.10
2022-12-06T07:42:35.174Z,2.10
2022-12-06T07:45:37.673Z,2.00
2022-12-06T07:48:39.903Z,2.10
2022-12-06T07:51:42.967Z,2.10
2022-12-06T07:54:45.078Z,2.10
2022-12-06T07:57:47.162Z,2.00
2022-12-06T08:00:49.452Z,2.00
2022-12-06T08:03:51.622Z,2.10
2022-12-06T08:06:54.328Z,2.00
2022-12-06T08:09:56.449Z,2.00
2022-12-06T08:12:58.555Z,2.10
2022-12-06T08:16:04.027Z,2.10
2022-12-06T08:19:06.201Z,2.10
2022-12-06T08:28:18.137Z,2.10
2022-12-06T08:31:23.027Z,2.10
2022-12-06T08:37:40.260Z,2.10
2022-12-06T08:40:42.535Z,2.10
2022-12-06T08:43:44.585Z,2.10
2022-12-06T08:46:46.784Z,2.10
2022-12-06T08:49:50.622Z,2.10
2022-12-06T08:52:52.748Z,2.10
2022-12-06T08:56:02.062Z,2.10
2022-12-06T08:59:05.642Z,2.20
2022-12-06T09:02:09.704Z,2.20
2022-12-06T09:05:11.775Z,2.40
2022-12-06T09:08:13.941Z,2.50
2022-12-06T09:11:17.219Z,2.40
2022-12-06T09:14:21.840Z,2.30
2022-12-06T09:17:24.417Z,2.30
2022-12-06T09:20:26.533Z,2.30
2022-12-06T09:23:28.543Z,2.30
2022-12-06T09:26:30.658Z,2.30
2022-12-06T09:29:40.212Z,2.30
2022-12-06T09:32:42.722Z,2.40
2022-12-06T09:35:44.762Z,2.40
2022-12-06T09:38:47.916Z,2.40
2022-12-06T09:42:11.582Z,2.50
2022-12-06T09:45:32.369Z,2.60
2022-12-06T09:49:31.557Z,2.60
2022-12-06T09:52:51.591Z,2.60
2022-12-06T09:56:39.519Z,2.70
2022-12-06T09:59:44.332Z,2.80
2022-12-06T10:03:06.438Z,2.90
2022-12-06T10:06:15.080Z,2.80
2022-12-06T10:09:55.534Z,2.80
2022-12-06T10:13:31.460Z,2.80
2022-12-06T10:16:52.264Z,2.80
2022-12-06T10:20:44.020Z,2.80
2022-12-06T10:24:20.951Z,2.90
2022-12-06T10:27:51.393Z,3.00
2022-12-06T10:30:56.736Z,3.10
2022-12-06T10:34:06.300Z,3.20
2022-12-06T10:37:23.424Z,3.10
2022-12-06T10:41:03.623Z,3.10
2022-12-06T10:44:37.582Z,3.10
2022-12-06T10:47:42.268Z,3.00
2022-12-06T10:50:44.378Z,2.90
2022-12-06T10:53:55.386Z,2.80
2022-12-06T10:56:57.979Z,2.90
2022-12-06T11:00:29.855Z,2.90
2022-12-06T11:03:54.291Z,3.00
2022-12-06T11:07:16.356Z,3.20
2022-12-06T11:10:27.713Z,3.60
2022-12-06T11:13:37.717Z,3.60
2022-12-06T11:17:18.942Z,3.80
2022-12-06T11:20:53.538Z,4.20
2022-12-06T11:24:32.025Z,4.50
2022-12-06T11:27:38.276Z,4.80
2022-12-06T11:30:40.371Z,5.10
2022-12-06T11:33:42.543Z,4.70
2022-12-06T11:36:44.898Z,4.90
2022-12-06T11:39:48.432Z,4.90
2022-12-06T11:42:50.500Z,4.30
2022-12-06T11:45:52.653Z,4.70
2022-12-06T11:48:56.129Z,4.70
2022-12-06T11:51:59.779Z,4.40
2022-12-06T11:55:21.630Z,4.10
2022-12-06T11:58:27.130Z,4.20
2022-12-06T12:02:01.024Z,4.30
2022-12-06T12:05:19.816Z,4.10
2022-12-06T12:08:21.944Z,4.00
2022-12-06T12:11:30.443Z,4.00
2022-12-06T12:14:39.868Z,3.80
2022-12-06T12:17:43.206Z,3.80
2022-12-06T12:20:45.785Z,3.80
2022-12-06T12:23:47.903Z,4.00
2022-12-06T12:26:49.949Z,4.30
2022-12-06T12:30:24.583Z,5.20
2022-12-06T12:33:30.264Z,5.60
2022-12-06T12:36:32.454Z,6.70
2022-12-06T12:39:44.990Z,7.10
2022-12-06T12:42:47.074Z,6.80
2022-12-06T12:46:10.243Z,6.00
2022-12-06T12:49:23.441Z,7.30
2022-12-06T12:52:37.380Z,5.50
2022-12-06T12:55:41.631Z,5.30
2022-12-06T12:58:44.288Z,4.80
2022-12-06T13:02:12.941Z,5.20
2022-12-06T13:05:35.593Z,6.90
2022-12-06T13:08:38.916Z,7.10
2022-12-06T13:11:46.775Z,7.80
2022-12-06T13:14:54.114Z,6.90
2022-12-06T13:18:00.805Z,7.50
2022-12-06T13:21:19.681Z,8.40
2022-12-06T13:24:27.514Z,9.00
2022-12-06T13:27:49.736Z,7.10
2022-12-06T13:30:57.001Z,6.20
2022-12-06T13:34:28.461Z,5.20
2022-12-06T13:37:45.552Z,4.90
2022-12-06T13:40:52.623Z,4.60
2022-12-06T13:43:54.805Z,4.40
2022-12-06T13:47:29.360Z,4.20
2022-12-06T13:50:34.453Z,4.10
2022-12-06T13:53:56.439Z,4.10
2022-12-06T13:56:58.877Z,4.10
2022-12-06T14:00:01.495Z,4.10
2022-12-06T14:03:21.576Z,4.00
2022-12-06T14:06:43.419Z,4.00
2022-12-06T14:09:48.153Z,3.90
2022-12-06T14:13:01.221Z,3.90
2022-12-06T14:16:04.781Z,4.20
2022-12-06T14:19:24.539Z,4.20
2022-12-06T14:22:29.305Z,4.20
2022-12-06T14:25:31.576Z,3.90
2022-12-06T14:28:35.554Z,3.70
2022-12-06T14:31:42.657Z,4.20
2022-12-06T14:34:44.938Z,4.10
2022-12-06T14:37:50.862Z,4.20
2022-12-06T14:41:11.577Z,4.40
2022-12-06T14:44:17.730Z,4.10
2022-12-06T14:47:20.829Z,3.70
2022-12-06T14:50:41.976Z,3.50
2022-12-06T14:53:44.030Z,3.50
2022-12-06T14:56:46.135Z,3.40
2022-12-06T15:00:15.250Z,3.40
2022-12-06T15:03:26.041Z,3.30
2022-12-06T15:06:30.779Z,3.20
2022-12-06T15:09:44.313Z,3.20
2022-12-06T15:12:55.575Z,3.30
2022-12-06T15:16:09.400Z,3.30
2022-12-06T15:19:15.721Z,3.40
2022-12-06T15:22:26.577Z,3.40
2022-12-06T15:25:28.643Z,3.40
2022-12-06T15:28:30.737Z,3.40
2022-12-06T15:31:32.814Z,3.40
2022-12-06T15:34:35.219Z,3.40
2022-12-06T15:37:39.391Z,3.30
2022-12-06T15:40:44.963Z,3.30
2022-12-06T15:43:47.272Z,3.20
2022-12-06T15:46:50.194Z,3.30
2022-12-06T15:49:53.966Z,3.30
2022-12-06T15:52:56.067Z,3.30
2022-12-06T15:55:58.355Z,3.30
2022-12-06T15:59:00.445Z,3.20
2022-12-06T16:02:02.793Z,3.20
2022-12-06T16:05:05.797Z,3.30
2022-12-06T16:08:08.258Z,3.30
2022-12-06T16:11:12.645Z,3.30
2022-12-06T16:14:15.048Z,3.30
2022-12-06T16:17:17.075Z,3.30
2022-12-06T16:20:31.377Z,3.30
2022-12-06T16:27:14.244Z,3.30
2022-12-06T16:30:17.135Z,3.40
2022-12-06T16:33:20.921Z,3.30
2022-12-06T16:36:23.869Z,3.40
2022-12-06T16:39:26.335Z,3.30
2022-12-06T16:42:28.436Z,3.30
2022-12-06T16:45:30.656Z,3.20
2022-12-06T16:48:34.626Z,3.10
2022-12-06T16:51:36.748Z,3.10
2022-12-06T16:54:42.386Z,3.00
2022-12-06T16:57:45.016Z,3.00
2022-12-06T17:00:47.172Z,3.00
2022-12-06T17:03:58.329Z,3.00
2022-12-06T17:07:00.439Z,3.00
2022-12-06T17:10:02.592Z,3.10
2022-12-06T17:13:04.885Z,3.10
2022-12-06T17:16:08.015Z,3.10
2022-12-06T17:19:15.345Z,3.10
2022-12-06T17:22:18.716Z,3.10
2022-12-06T17:25:20.870Z,3.10
2022-12-06T17:28:22.936Z,3.10
2022-12-06T17:31:25.118Z,3.10
2022-12-06T17:34:27.160Z,3.10
2022-12-06T17:37:29.200Z,3.10
2022-12-06T17:40:33.015Z,3.00
2022-12-06T17:43:35.096Z,3.00
2022-12-06T17:46:37.665Z,2.90
2022-12-06T17:49:39.765Z,2.90
2022-12-06T17:52:41.836Z,2.90
2022-12-06T17:55:43.895Z,2.90
2022-12-06T17:58:45.925Z,2.90
2022-12-06T18:02:14.143Z,2.90
2022-12-06T18:05:10.639Z,2.90
2022-12-06T18:08:12.793Z,2.90
2022-12-06T18:11:15.938Z,2.90
2022-12-06T18:14:20.541Z,2.90
2022-12-06T18:17:22.582Z,2.90
2022-12-06T18:20:24.652Z,2.90
2022-12-06T18:23:26.847Z,2.90
2022-12-06T18:26:28.991Z,2.80
2022-12-06T18:29:31.093Z,2.90
2022-12-06T18:32:33.166Z,2.90
2022-12-06T18:35:36.085Z,2.80
2022-12-06T18:38:38.268Z,2.80
2022-12-06T18:41:40.296Z,2.90
2022-12-06T18:44:42.324Z,2.80
2022-12-06T18:47:44.373Z,2.80
2022-12-06T18:50:46.450Z,2.80
2022-12-06T18:53:49.313Z,2.80
2022-12-06T18:56:51.558Z,2.80
2022-12-06T18:59:53.593Z,2.80
2022-12-06T19:02:55.684Z,2.80
2022-12-06T19:06:04.937Z,2.80
2022-12-06T19:09:10.272Z,2.70
2022-12-06T19:12:12.324Z,2.70
2022-12-06T19:15:14.565Z,2.70
2022-12-06T19:18:16.685Z,2.70
2022-12-06T19:21:24.133Z,2.60
2022-12-06T19:24:26.747Z,2.50
2022-12-06T19:27:28.781Z,2.50
2022-12-06T19:30:30.845Z,2.40
2022-12-06T19:33:38.712Z,2.30
2022-12-06T19:36:40.753Z,2.30
2022-12-06T19:39:43.003Z,2.30
2022-12-06T19:43:03.843Z,2.40
2022-12-06T19:46:17.391Z,2.40
2022-12-06T19:49:20.978Z,2.50
2022-12-06T19:52:26.564Z,2.50
2022-12-06T19:55:32.690Z,2.50
2022-12-06T19:58:34.752Z,2.50
2022-12-06T20:01:37.188Z,2.50
2022-12-06T20:04:41.740Z,2.50
2022-12-06T20:07:44.658Z,2.40
2022-12-06T20:10:46.759Z,2.40
2022-12-06T20:13:48.807Z,2.30
2022-12-06T20:16:51.421Z,2.20
2022-12-06T20:19:53.599Z,2.20
2022-12-06T20:22:55.642Z,2.20
2022-12-06T20:25:57.820Z,2.20
2022-12-06T20:29:00.143Z,2.20
2022-12-06T20:32:02.515Z,2.20
2022-12-06T20:35:04.952Z,2.20
2022-12-06T20:38:07.017Z,2.20
2022-12-06T20:41:20.284Z,2.20
2022-12-06T20:44:22.458Z,2.20
2022-12-06T20:47:24.507Z,2.20
2022-12-06T20:50:31.721Z,2.20
2022-12-06T20:53:34.021Z,2.20
2022-12-06T20:56:38.167Z,2.20
2022-12-06T20:59:40.508Z,2.10
2022-12-06T21:02:42.672Z,2.00
2022-12-06T21:05:45.371Z,2.00
2022-12-06T21:08:48.352Z,2.10
2022-12-06T21:11:50.563Z,2.00
2022-12-06T21:14:52.858Z,2.00
2022-12-06T21:17:54.964Z,2.10
2022-12-06T21:20:57.218Z,1.90
2022-12-06T21:24:00.521Z,1.90
2022-12-06T21:27:02.576Z,1.80
2022-12-06T21:30:05.652Z,1.80
2022-12-06T21:33:07.688Z,1.80
2022-12-06T21:36:11.052Z,1.80
2022-12-06T21:39:13.812Z,1.80
2022-12-06T21:42:15.875Z,1.70
2022-12-06T21:45:18.311Z,1.70
2022-12-06T21:48:20.334Z,1.70
2022-12-06T21:51:29.674Z,1.60
2022-12-06T21:54:31.757Z,1.60
2022-12-06T21:57:35.127Z,1.60
2022-12-06T22:00:42.248Z,1.60
2022-12-06T22:03:47.625Z,1.50
2022-12-06T22:06:49.678Z,1.50
2022-12-06T22:09:51.717Z,1.50
2022-12-06T22:12:53.775Z,1.50
2022-12-06T22:15:55.868Z,1.50
2022-12-06T22:18:58.353Z,1.50
2022-12-06T22:22:00.425Z,1.50
2022-12-06T22:25:02.773Z,1.50
2022-12-06T22:28:05.129Z,1.40
2022-12-06T22:31:24.628Z,1.40
2022-12-06T22:34:26.733Z,1.40
2022-12-06T22:37:28.815Z,1.40
2022-12-06T22:40:30.874Z,1.30
2022-12-06T22:43:33.075Z,1.30
2022-12-06T22:46:36.614Z,1.30
2022-12-06T22:49:38.907Z,1.20
2022-12-06T22:52:41.422Z,1.20
2022-12-06T22:55:43.450Z,1.20
2022-12-06T22:58:45.471Z,1.20
2022-12-06T23:01:47.744Z,1.20
2022-12-06T23:04:49.844Z,1.10
2022-12-06T23:07:51.941Z,1.10
2022-12-06T23:11:02.100Z,1.00
2022-12-06T23:14:04.545Z,1.00
2022-12-06T23:17:06.738Z,1.00
2022-12-06T23:20:09.315Z,0.90
2022-12-06T23:23:11.341Z,0.80
2022-12-06T23:26:24.963Z,0.80
2022-12-06T23:29:27.073Z,0.80
2022-12-06T23:32:30.063Z,0.80
2022-12-06T23:35:32.113Z,0.70
2022-12-06T23:38:34.476Z,0.70
2022-12-06T23:41:36.850Z,0.70
2022-12-06T23:44:40.100Z,0.70
2022-12-06T23:47:42.246Z,0.80
2022-12-06T23:50:44.292Z,0.70
2022-12-06T23:53:49.311Z,0.80
2022-12-06T23:56:51.378Z,0.80
2022-12-06T23:59:53.420Z,0.80
